Time;durP1;ratioP1;P1;durP2;ratioP2;P2;SDS_P1;SDS_P2;PMS_P1;PMS_P2;Temp;Humidity;BMP_temperature;BMP_pressure;BME280_temperature;BME280_humidity;BME280_pressure;Samples;Min_cycle;Max_cycle;Signal;HPM_P1;HPM_P2
2022/01/29 00:00:05;;;;;;;51.43;24.70;;;8.60;80.80;;;;;;5123107;27;20185;-85
2022/01/29 00:02:31;;;;;;;52.45;24.95;;;8.50;81.00;;;;;;5122628;27;20195;-85
2022/01/29 00:04:56;;;;;;;51.40;22.43;;;8.60;81.20;;;;;;5141759;27;20171;-85
2022/01/29 00:07:22;;;;;;;47.93;24.10;;;8.50;81.30;;;;;;5124201;27;20681;-86
2022/01/29 00:09:48;;;;;;;59.60;25.50;;;8.60;80.90;;;;;;5138653;27;20180;-86
2022/01/29 00:12:14;;;;;;;53.70;24.83;;;8.50;81.10;;;;;;5154676;27;20190;-85
2022/01/29 00:14:40;;;;;;;45.58;23.80;;;8.40;81.10;;;;;;5129883;27;20412;-85
2022/01/29 00:17:06;;;;;;;44.80;23.87;;;8.30;81.50;;;;;;5122422;27;20212;-86
2022/01/29 00:19:31;;;;;;;54.25;24.75;;;8.30;81.80;;;;;;5121078;27;20258;-85
2022/01/29 00:21:58;;;;;;;47.70;25.40;;;8.30;82.10;;;;;;5139739;27;20274;-86
2022/01/29 00:24:24;;;;;;;48.50;22.65;;;8.40;82.20;;;;;;5122710;27;20935;-86
2022/01/29 00:26:51;;;;;;;52.67;25.60;;;8.50;82.10;;;;;;5121777;27;20179;-85
2022/01/29 00:29:21;;;;;;;53.25;24.38;;;8.60;81.70;;;;;;5122910;27;20194;-86
2022/01/29 00:31:48;;;;;;;49.88;24.83;;;8.40;81.90;;;;;;5121285;27;20792;-88
2022/01/29 00:34:14;;;;;;;56.72;23.55;;;8.40;82.20;;;;;;5120874;27;20194;-86
2022/01/29 00:36:40;;;;;;;49.83;21.60;;;8.40;82.50;;;;;;5139705;27;20290;-86
2022/01/29 00:39:06;;;;;;;44.87;21.23;;;8.40;82.60;;;;;;5122099;27;20405;-87
2022/01/29 00:41:32;;;;;;;57.78;25.77;;;8.30;82.90;;;;;;5121274;27;20478;-86
2022/01/29 00:43:58;;;;;;;48.40;25.17;;;8.40;83.10;;;;;;5122738;27;20178;-85
2022/01/29 00:46:24;;;;;;;52.55;23.98;;;8.30;83.40;;;;;;5123742;27;20408;-86
2022/01/29 00:48:49;;;;;;;51.78;24.80;;;8.20;83.90;;;;;;5125684;27;20206;-84
2022/01/29 00:51:15;;;;;;;50.83;25.10;;;8.20;84.10;;;;;;5123673;27;20586;-85
2022/01/29 00:53:41;;;;;;;51.40;24.70;;;8.10;84.40;;;;;;5121957;27;20209;-84
2022/01/29 00:56:09;;;;;;;59.03;25.87;;;8.20;84.60;;;;;;5122099;27;20227;-85
2022/01/29 00:58:35;;;;;;;57.05;24.00;;;8.30;84.70;;;;;;5123168;27;20182;-85
2022/01/29 01:01:01;;;;;;;54.30;26.70;;;8.30;84.80;;;;;;5127737;27;20179;-84
2022/01/29 01:03:27;;;;;;;51.53;24.77;;;8.30;84.80;;;;;;5127960;27;20813;-85
2022/01/29 01:05:53;;;;;;;54.13;26.10;;;8.30;85.10;;;;;;5122614;27;20675;-85
2022/01/29 01:08:18;;;;;;;55.53;25.70;;;8.20;85.40;;;;;;5125456;27;21077;-85
2022/01/29 01:10:44;;;;;;;60.13;25.20;;;8.20;85.70;;;;;;5127332;27;20178;-86
2022/01/29 01:13:10;;;;;;;51.10;23.95;;;8.00;85.90;;;;;;5129666;27;20194;-86
2022/01/29 01:15:36;;;;;;;54.03;24.87;;;8.00;86.20;;;;;;5128535;27;20181;-85
2022/01/29 01:18:01;;;;;;;51.37;23.33;;;8.00;86.50;;;;;;5149868;27;20412;-86
2022/01/29 01:20:27;;;;;;;62.17;26.90;;;8.10;86.60;;;;;;5126760;27;20181;-86
2022/01/29 01:22:53;;;;;;;53.25;24.10;;;8.00;86.80;;;;;;5124421;27;20194;-87
2022/01/29 01:25:19;;;;;;;53.60;27.67;;;8.10;86.80;;;;;;5120299;27;20189;-86
2022/01/29 01:27:45;;;;;;;58.97;25.73;;;8.00;86.90;;;;;;5120999;27;20467;-85
2022/01/29 01:30:11;;;;;;;55.50;25.80;;;8.00;87.20;;;;;;5140829;27;20175;-85
2022/01/29 01:32:37;;;;;;;54.88;26.40;;;8.00;87.50;;;;;;5122035;27;20198;-85
2022/01/29 01:35:17;;;;;;;54.20;26.13;;;7.90;87.60;;;;;;5138682;27;20175;-85
2022/01/29 01:37:55;;;;;;;54.03;25.73;;;7.90;87.90;;;;;;5119466;27;20405;-86
2022/01/29 01:40:22;;;;;;;56.63;25.48;;;7.90;88.00;;;;;;5119724;27;20192;-85
2022/01/29 01:42:48;;;;;;;69.30;26.30;;;8.00;87.90;;;;;;5137816;27;20190;-86
2022/01/29 01:45:14;;;;;;;58.63;28.13;;;8.20;88.50;;;;;;5119310;27;20193;-86
2022/01/29 01:47:40;;;;;;;58.67;27.33;;;8.10;87.70;;;;;;5120040;27;20209;-86
2022/01/29 01:50:07;;;;;;;57.60;27.63;;;8.10;87.80;;;;;;5120181;27;20443;-85
2022/01/29 01:52:33;;;;;;;59.35;26.15;;;8.20;87.80;;;;;;5119346;27;20202;-85
2022/01/29 01:54:59;;;;;;;65.00;28.20;;;8.20;87.40;;;;;;5118671;27;20175;-85
2022/01/29 01:57:25;;;;;;;65.60;24.70;;;8.20;88.20;;;;;;5119111;27;20171;-86
2022/01/29 01:59:50;;;;;;;61.80;24.70;;;8.30;87.30;;;;;;5119505;27;20167;-86
2022/01/29 02:02:16;;;;;;;57.47;26.27;;;8.30;87.20;;;;;;5119641;27;20696;-85
2022/01/29 02:04:42;;;;;;;62.50;24.63;;;8.30;87.20;;;;;;5119934;27;20404;-85
2022/01/29 02:07:08;;;;;;;56.67;26.67;;;8.30;87.10;;;;;;5121928;27;20237;-86
2022/01/29 02:09:34;;;;;;;55.40;25.35;;;8.30;87.10;;;;;;5122624;27;20934;-87
2022/01/29 02:12:02;;;;;;;57.53;23.88;;;8.30;87.30;;;;;;5123940;27;20194;-87
2022/01/29 02:14:31;;;;;;;69.15;26.52;;;8.30;87.20;;;;;;5117119;27;20194;-88
2022/01/29 02:16:59;;;;;;;58.80;26.27;;;8.10;87.40;;;;;;5117490;27;20257;-88
2022/01/29 02:19:25;;;;;;;58.38;23.90;;;8.10;87.70;;;;;;5117320;27;20309;-88
2022/01/29 02:21:52;;;;;;;54.95;24.23;;;8.10;88.10;;;;;;5135888;27;20577;-88
2022/01/29 02:24:17;;;;;;;59.08;26.25;;;8.10;88.10;;;;;;5117176;27;20201;-88
2022/01/29 02:26:43;;;;;;;50.70;24.50;;;8.20;88.10;;;;;;5117273;27;20641;-88
2022/01/29 02:29:09;;;;;;;51.67;24.03;;;8.20;88.10;;;;;;5135674;27;20803;-88
2022/01/29 02:31:34;;;;;;;58.37;24.30;;;8.10;88.40;;;;;;5117875;27;20194;-88
2022/01/29 02:34:00;;;;;;;55.90;24.20;;;8.10;88.40;;;;;;5119440;27;20198;-88
2022/01/29 02:36:31;;;;;;;51.53;23.13;;;8.10;88.60;;;;;;5126136;27;20186;-87
2022/01/29 02:38:59;;;;;;;60.38;23.42;;;8.20;88.60;;;;;;5125736;27;20413;-88
2022/01/29 02:41:25;;;;;;;45.30;22.52;;;8.10;88.70;;;;;;5129309;27;20238;-88
2022/01/29 02:43:51;;;;;;;46.67;22.27;;;8.10;88.80;;;;;;5131788;27;20193;-87
2022/01/29 02:48:46;;;;;;;51.30;23.85;;;8.00;89.10;;;;;;5139594;27;20226;-88
2022/01/29 02:51:12;;;;;;;42.20;21.17;;;8.10;89.30;;;;;;5119110;27;20209;-87
2022/01/29 02:53:38;;;;;;;51.67;19.50;;;8.00;89.40;;;;;;5137827;27;20175;-87
2022/01/29 02:56:05;;;;;;;45.10;21.20;;;7.90;89.70;;;;;;5117275;27;20461;-88
2022/01/29 02:58:31;;;;;;;47.10;20.42;;;8.00;89.80;;;;;;5118709;27;20420;-87
2022/01/29 03:00:57;;;;;;;49.75;20.55;;;8.20;89.90;;;;;;5134780;27;20185;-87
2022/01/29 03:03:24;;;;;;;45.25;21.88;;;8.10;89.90;;;;;;5124714;27;20209;-88
2022/01/29 03:05:51;;;;;;;40.60;20.10;;;8.20;89.90;;;;;;5116914;27;20230;-88
2022/01/29 03:08:16;;;;;;;45.55;19.70;;;8.30;89.70;;;;;;5117614;28;20202;-88
2022/01/29 03:10:42;;;;;;;47.10;20.30;;;8.30;89.60;;;;;;5117619;28;20189;-88
2022/01/29 03:13:09;;;;;;;43.80;21.17;;;8.30;89.50;;;;;;5116269;28;20440;-88
2022/01/29 03:15:35;;;;;;;48.15;20.55;;;8.40;89.50;;;;;;5134653;28;20198;-87
2022/01/29 03:18:01;;;;;;;49.35;23.60;;;8.40;89.50;;;;;;5134895;28;20194;-88
2022/01/29 03:20:27;;;;;;;56.23;21.80;;;8.40;89.30;;;;;;5116711;28;20170;-88
2022/01/29 03:22:52;;;;;;;50.73;21.77;;;8.30;89.40;;;;;;5134683;28;20241;-88
2022/01/29 03:25:18;;;;;;;42.77;20.93;;;8.30;89.60;;;;;;5120062;27;20416;-88
2022/01/29 03:27:44;;;;;;;44.77;21.27;;;8.40;89.60;;;;;;5120833;27;20229;-88
2022/01/29 03:30:10;;;;;;;42.60;21.00;;;8.50;89.70;;;;;;5120339;27;20174;-87
2022/01/29 03:32:36;;;;;;;44.25;18.60;;;8.50;89.50;;;;;;5120288;27;20489;-88
2022/01/29 03:35:03;;;;;;;40.93;18.47;;;8.50;89.60;;;;;;5138630;27;20171;-88
2022/01/29 03:37:29;;;;;;;51.67;18.98;;;8.50;89.60;;;;;;5120179;27;20181;-87
2022/01/29 03:39:59;;;;;;;42.63;19.30;;;8.50;89.70;;;;;;5120534;27;20174;-88
2022/01/29 03:42:46;;;;;;;46.22;17.95;;;8.40;89.70;;;;;;5138695;27;20949;-88
2022/01/29 03:45:14;;;;;;;45.08;17.70;;;8.30;90.10;;;;;;5120413;27;20749;-88
2022/01/29 03:47:40;;;;;;;37.90;18.20;;;8.30;90.40;;;;;;5121122;27;20213;-88
2022/01/29 03:50:06;;;;;;;46.03;19.07;;;8.30;90.50;;;;;;5121063;27;20170;-88
2022/01/29 03:52:32;;;;;;;30.55;16.38;;;8.50;90.70;;;;;;5138814;27;20187;-88
2022/01/29 03:54:57;;;;;;;31.13;16.20;;;8.50;90.50;;;;;;5123317;27;20273;-88
2022/01/29 03:57:23;;;;;;;34.80;16.50;;;8.40;90.70;;;;;;5120539;27;20441;-88
2022/01/29 03:59:49;;;;;;;38.40;18.13;;;8.50;90.90;;;;;;5139112;27;20288;-88
2022/01/29 04:02:14;;;;;;;29.80;16.10;;;8.60;91.10;;;;;;5119732;27;20190;-88
2022/01/29 04:04:40;;;;;;;34.57;15.97;;;8.50;91.10;;;;;;5137744;27;20175;-87
2022/01/29 04:07:10;;;;;;;40.03;17.10;;;8.50;91.30;;;;;;5121852;27;20214;-87
2022/01/29 04:09:36;;;;;;;34.95;15.48;;;8.60;91.30;;;;;;5141072;27;20190;-87
2022/01/29 04:12:02;;;;;;;32.58;14.98;;;8.60;91.20;;;;;;5123644;27;20201;-87
2022/01/29 04:14:36;;;;;;;31.45;15.25;;;8.70;91.20;;;;;;5124564;27;20274;-87
2022/01/29 04:17:02;;;;;;;37.53;17.35;;;8.70;91.10;;;;;;5124539;27;20167;-87
2022/01/29 04:19:27;;;;;;;34.93;15.93;;;8.80;91.00;;;;;;5120720;27;20275;-87
2022/01/29 04:21:53;;;;;;;36.80;17.27;;;8.70;91.10;;;;;;5119514;27;20471;-88
2022/01/29 04:24:19;;;;;;;30.57;15.27;;;8.80;91.20;;;;;;5137573;27;20167;-87
2022/01/29 04:26:45;;;;;;;35.73;14.23;;;8.80;91.20;;;;;;5119947;27;20175;-88
2022/01/29 04:29:11;;;;;;;22.53;12.90;;;8.80;91.10;;;;;;5118748;27;20230;-87
2022/01/29 04:31:44;;;;;;;24.42;13.93;;;8.80;91.10;;;;;;5137556;27;20834;-88
2022/01/29 04:34:10;;;;;;;29.30;14.57;;;8.90;91.20;;;;;;5137183;27;20181;-87
2022/01/29 04:36:35;;;;;;;31.77;15.50;;;8.90;91.00;;;;;;5118596;27;20179;-88
2022/01/29 04:39:02;;;;;;;31.70;14.27;;;8.80;90.90;;;;;;5120172;27;20420;-87
2022/01/29 04:41:28;;;;;;;35.50;13.98;;;8.80;91.00;;;;;;5137702;27;20175;-87
2022/01/29 04:43:53;;;;;;;36.97;15.27;;;8.90;91.10;;;;;;5119870;27;20278;-87
2022/01/29 04:46:19;;;;;;;32.57;14.47;;;8.90;91.00;;;;;;5118779;27;20182;-88
2022/01/29 04:48:45;;;;;;;28.80;13.93;;;8.80;91.00;;;;;;5118973;27;20669;-88
2022/01/29 04:51:11;;;;;;;32.63;15.47;;;9.10;90.90;;;;;;5119526;27;20175;-88
2022/01/29 04:53:36;;;;;;;34.47;13.93;;;9.00;90.70;;;;;;5118870;27;20174;-88
2022/01/29 04:56:02;;;;;;;27.90;14.50;;;9.10;90.80;;;;;;5119690;27;20173;-89
2022/01/29 04:58:28;;;;;;;27.17;14.73;;;9.00;90.60;;;;;;5137669;27;20178;-88
2022/01/29 05:00:53;;;;;;;29.90;14.80;;;9.10;90.50;;;;;;5140812;27;20559;-89
2022/01/29 05:03:19;;;;;;;26.37;12.80;;;9.20;90.30;;;;;;5139891;27;20193;-89
2022/01/29 05:05:45;;;;;;;26.53;13.43;;;9.10;90.30;;;;;;5140522;27;20521;-88
2022/01/29 05:08:14;;;;;;;21.43;12.40;;;9.20;90.30;;;;;;5141174;27;20227;-86
2022/01/29 05:10:39;;;;;;;23.52;12.27;;;9.20;90.30;;;;;;5141810;27;20261;-88
2022/01/29 05:13:08;;;;;;;23.00;12.83;;;9.30;90.30;;;;;;5145108;27;20233;-88
2022/01/29 05:28:57;;;;;;;21.35;12.43;;;9.10;90.50;;;;;;5157991;27;20281;-88
2022/01/29 05:31:23;;;;;;;20.07;12.27;;;9.10;90.60;;;;;;5139473;27;20205;-88
2022/01/29 05:33:49;;;;;;;25.67;13.10;;;9.10;90.80;;;;;;5139584;27;20215;-88
2022/01/29 05:36:14;;;;;;;21.67;12.17;;;9.10;90.80;;;;;;5144372;27;20271;-88
2022/01/29 05:38:40;;;;;;;23.60;11.63;;;9.20;90.90;;;;;;5145554;27;20181;-89
2022/01/29 05:41:06;;;;;;;28.37;13.13;;;9.20;90.80;;;;;;5169996;27;20194;-88
2022/01/29 05:43:32;;;;;;;21.67;12.67;;;9.30;90.70;;;;;;5170648;27;20458;-87
2022/01/29 05:45:58;;;;;;;25.50;14.63;;;9.30;90.50;;;;;;5151895;27;20442;-87
2022/01/29 05:48:24;;;;;;;20.50;10.80;;;9.20;90.40;;;;;;5140951;27;21248;-88
2022/01/29 05:50:49;;;;;;;20.50;12.53;;;9.20;90.50;;;;;;5139441;27;20217;-88
2022/01/29 05:53:15;;;;;;;23.13;12.30;;;9.30;90.70;;;;;;5138259;27;20205;-88
2022/01/29 05:55:41;;;;;;;22.13;12.30;;;9.40;90.60;;;;;;5138962;27;20174;-88
2022/01/29 05:58:06;;;;;;;19.53;11.57;;;9.40;90.50;;;;;;5158088;27;20170;-88
2022/01/29 06:00:32;;;;;;;26.43;12.73;;;9.40;90.40;;;;;;5157869;27;20177;-88
2022/01/29 06:03:03;;;;;;;25.50;11.83;;;9.30;90.40;;;;;;5139114;27;20289;-89
2022/01/29 06:05:29;;;;;;;22.88;11.45;;;9.40;90.40;;;;;;5157776;27;20201;-88
2022/01/29 06:07:55;;;;;;;25.58;11.73;;;9.50;90.20;;;;;;5158695;27;20248;-87
2022/01/29 06:10:21;;;;;;;24.38;11.15;;;9.40;90.10;;;;;;5150059;27;20213;-88
2022/01/29 06:12:57;;;;;;;24.90;12.50;;;9.40;90.10;;;;;;5141563;27;20213;-89
2022/01/29 06:15:23;;;;;;;21.48;11.95;;;9.40;90.20;;;;;;5159924;27;20395;-89
2022/01/29 06:17:48;;;;;;;22.77;13.23;;;9.50;90.20;;;;;;5162854;27;20515;-88
2022/01/29 06:20:14;;;;;;;19.53;11.50;;;9.50;90.00;;;;;;5161481;27;20169;-88
2022/01/29 06:22:42;;;;;;;32.63;13.43;;;9.50;90.00;;;;;;5158687;27;20212;-87
2022/01/29 06:25:08;;;;;;;27.10;13.05;;;9.50;89.70;;;;;;5142710;27;20177;-86
2022/01/29 06:27:34;;;;;;;26.75;13.50;;;9.40;89.70;;;;;;5142704;27;20265;-87
2022/01/29 06:29:59;;;;;;;23.10;11.67;;;9.40;89.90;;;;;;5138871;27;20197;-88
2022/01/29 06:32:25;;;;;;;24.27;12.20;;;9.40;90.00;;;;;;5137777;27;20197;-87
2022/01/29 06:34:51;;;;;;;18.90;11.10;;;9.40;90.20;;;;;;5137855;27;20834;-88
2022/01/29 06:37:16;;;;;;;16.20;10.53;;;9.30;90.20;;;;;;5138519;27;20193;-88
2022/01/29 06:39:42;;;;;;;24.63;11.83;;;9.40;90.30;;;;;;5139389;27;20187;-87
2022/01/29 06:42:08;;;;;;;28.50;10.60;;;9.40;90.40;;;;;;5157087;27;20213;-89
2022/01/29 06:44:33;;;;;;;23.67;11.20;;;9.60;90.40;;;;;;5138278;27;20174;-88
2022/01/29 06:46:59;;;;;;;18.37;10.90;;;9.50;90.20;;;;;;5139309;27;20178;-89
2022/01/29 06:49:25;;;;;;;19.67;10.77;;;9.60;90.00;;;;;;5139825;27;20750;-89
2022/01/29 06:51:53;;;;;;;19.00;11.77;;;9.60;90.00;;;;;;5137806;27;20197;-88
2022/01/29 06:54:18;;;;;;;24.83;11.20;;;9.60;89.90;;;;;;5137350;27;20178;-88
2022/01/29 06:56:44;;;;;;;25.57;12.00;;;9.60;89.80;;;;;;5137587;27;20577;-88
2022/01/29 06:59:10;;;;;;;17.60;11.50;;;9.40;89.90;;;;;;5137803;27;20177;-89
2022/01/29 07:01:36;;;;;;;20.33;11.00;;;9.50;90.30;;;;;;5138535;27;20198;-85
2022/01/29 07:04:01;;;;;;;22.98;10.93;;;9.60;90.20;;;;;;5139508;27;20174;-85
2022/01/29 07:06:27;;;;;;;23.50;12.40;;;9.50;90.30;;;;;;5143118;27;20178;-86
2022/01/29 07:08:53;;;;;;;24.90;11.17;;;9.50;90.50;;;;;;5144032;27;20216;-87
2022/01/29 07:11:22;;;;;;;21.13;10.57;;;9.40;90.60;;;;;;5142650;27;20631;-86
2022/01/29 07:13:49;;;;;;;19.60;11.68;;;9.40;90.80;;;;;;5142192;27;20200;-85
2022/01/29 07:16:15;;;;;;;16.65;10.65;;;9.50;91.00;;;;;;5141914;27;20177;-85
2022/01/29 07:18:40;;;;;;;16.73;9.90;;;9.60;90.70;;;;;;5139866;27;20731;-85
2022/01/29 07:21:06;;;;;;;20.17;10.73;;;9.70;90.70;;;;;;5138149;27;20220;-85
2022/01/29 07:23:32;;;;;;;17.90;11.07;;;9.80;90.50;;;;;;5137943;27;20204;-90
2022/01/29 07:25:57;;;;;;;20.93;10.50;;;9.90;90.30;;;;;;5138347;27;20793;-87
2022/01/29 07:28:24;;;;;;;22.47;11.30;;;9.80;90.10;;;;;;5157349;27;20364;-87
2022/01/29 07:30:50;;;;;;;27.73;11.25;;;9.80;90.00;;;;;;5138352;27;20177;-88
2022/01/29 07:33:15;;;;;;;22.60;11.57;;;9.80;90.00;;;;;;5156295;27;20190;-87
2022/01/29 07:35:41;;;;;;;20.67;12.60;;;9.80;90.00;;;;;;5136970;27;20586;-86
2022/01/29 07:38:07;;;;;;;20.10;11.67;;;9.80;90.00;;;;;;5138212;27;20177;-87
2022/01/29 07:40:40;;;;;;;21.00;11.90;;;9.90;89.90;;;;;;5137850;27;20178;-87
2022/01/29 07:43:06;;;;;;;28.10;12.10;;;9.80;89.80;;;;;;5138594;27;20204;-87
2022/01/29 07:45:32;;;;;;;23.60;11.90;;;9.80;89.90;;;;;;5137964;27;20257;-87
2022/01/29 07:47:57;;;;;;;25.63;12.57;;;9.80;90.10;;;;;;5157857;27;20193;-88
2022/01/29 07:50:23;;;;;;;18.50;11.70;;;9.80;90.30;;;;;;5157737;27;20540;-88
2022/01/29 07:52:49;;;;;;;20.53;10.90;;;9.80;90.30;;;;;;5138242;27;20253;-88
2022/01/29 07:55:14;;;;;;;22.53;11.53;;;9.90;90.40;;;;;;5156447;27;20648;-89
2022/01/29 07:57:40;;;;;;;26.77;11.70;;;10.00;90.30;;;;;;5138416;27;20646;-88
2022/01/29 08:00:06;;;;;;;20.90;12.60;;;9.90;90.20;;;;;;5138808;27;20582;-88
2022/01/29 08:02:32;;;;;;;25.40;12.35;;;9.90;90.20;;;;;;5138896;27;20197;-88
2022/01/29 08:04:58;;;;;;;22.87;12.67;;;9.80;90.20;;;;;;5134844;28;20183;-88
2022/01/29 08:07:24;;;;;;;18.70;11.30;;;10.00;90.20;;;;;;5135563;28;20446;-88
2022/01/29 08:09:49;;;;;;;16.73;10.73;;;10.10;90.10;;;;;;5135638;27;20186;-88
2022/01/29 08:12:15;;;;;;;23.80;10.77;;;10.10;89.90;;;;;;5137598;27;20222;-88
2022/01/29 08:14:40;;;;;;;22.00;12.10;;;10.10;89.90;;;;;;5138667;27;20212;-88
2022/01/29 08:17:07;;;;;;;19.57;12.00;;;10.10;89.70;;;;;;5139698;27;20297;-88
2022/01/29 08:19:33;;;;;;;31.15;11.70;;;10.20;89.70;;;;;;5121437;27;20662;-88
2022/01/29 08:21:59;;;;;;;22.70;12.10;;;10.20;89.60;;;;;;5118268;28;20210;-87
2022/01/29 08:24:24;;;;;;;22.43;11.47;;;10.10;89.80;;;;;;5104067;28;20190;-88
2022/01/29 08:26:50;;;;;;;25.33;12.07;;;10.10;89.80;;;;;;5112921;27;20171;-88
2022/01/29 08:29:16;;;;;;;23.47;11.77;;;10.20;89.70;;;;;;5131583;27;20203;-89
2022/01/29 08:31:41;;;;;;;26.67;10.70;;;10.30;89.50;;;;;;5129201;27;20206;-88
2022/01/29 08:34:07;;;;;;;28.90;10.90;;;10.20;89.50;;;;;;5123124;27;20174;-87
2022/01/29 08:36:33;;;;;;;17.33;10.77;;;10.30;89.60;;;;;;5125968;27;20171;-87
2022/01/29 08:38:59;;;;;;;17.97;10.80;;;10.20;89.50;;;;;;5108837;28;20217;-88
2022/01/29 08:41:25;;;;;;;14.37;8.90;;;10.30;90.20;;;;;;5112826;28;20413;-88
2022/01/29 08:43:50;;;;;;;26.33;10.13;;;10.40;89.40;;;;;;5106431;28;20421;-88
2022/01/29 08:46:16;;;;;;;18.57;10.20;;;10.50;89.20;;;;;;5105888;28;20206;-87
2022/01/29 08:48:42;;;;;;;17.73;10.87;;;10.50;89.00;;;;;;5120464;28;20191;-88
2022/01/29 08:51:07;;;;;;;19.80;10.47;;;10.40;88.90;;;;;;5119252;28;20172;-88
2022/01/29 08:53:34;;;;;;;19.70;9.77;;;10.30;89.10;;;;;;5118827;27;20196;-88
2022/01/29 08:56:00;;;;;;;16.58;10.25;;;10.20;89.20;;;;;;5122792;27;20189;-88
2022/01/29 08:58:26;;;;;;;16.43;10.03;;;10.20;89.50;;;;;;5121373;27;20179;-87
2022/01/29 09:00:52;;;;;;;13.97;9.27;;;10.20;89.70;;;;;;5120147;27;20412;-88
2022/01/29 09:03:18;;;;;;;17.20;8.57;;;10.20;90.00;;;;;;5123387;27;20197;-88
2022/01/29 09:05:45;;;;;;;18.90;11.05;;;10.20;90.10;;;;;;5135791;27;20175;-88
2022/01/29 09:08:13;;;;;;;17.70;9.00;;;10.20;90.10;;;;;;5145414;27;20256;-87
2022/01/29 09:10:39;;;;;;;20.35;10.73;;;10.30;90.20;;;;;;5142119;27;20185;-87
2022/01/29 09:13:05;;;;;;;18.90;9.73;;;10.30;90.10;;;;;;5138025;27;20190;-87
2022/01/29 09:15:31;;;;;;;18.13;11.23;;;10.50;90.20;;;;;;5140725;27;20568;-88
2022/01/29 09:17:57;;;;;;;19.20;9.63;;;10.50;90.00;;;;;;5144983;27;20892;-89
2022/01/29 09:20:22;;;;;;;21.30;10.97;;;10.60;89.70;;;;;;5141593;27;20227;-89
2022/01/29 09:22:48;;;;;;;18.93;10.17;;;10.60;89.50;;;;;;5139193;27;20593;-88
2022/01/29 09:25:14;;;;;;;15.30;9.70;;;10.50;89.40;;;;;;5138753;27;20205;-88
2022/01/29 09:27:40;;;;;;;22.47;8.30;;;10.60;89.50;;;;;;5143523;27;20650;-87
2022/01/29 09:30:06;;;;;;;22.93;9.60;;;10.70;89.70;;;;;;5137864;27;20174;-87
2022/01/29 09:32:33;;;;;;;16.17;9.65;;;10.80;89.40;;;;;;5139127;27;20798;-88
2022/01/29 09:34:59;;;;;;;18.23;9.02;;;10.80;89.00;;;;;;5138653;27;20179;-88
2022/01/29 09:37:25;;;;;;;16.40;8.70;;;11.00;88.60;;;;;;5148483;27;20240;-88
2022/01/29 09:39:52;;;;;;;13.30;8.43;;;11.10;88.00;;;;;;5149554;27;20812;-89
2022/01/29 09:42:19;;;;;;;12.77;7.35;;;11.10;87.50;;;;;;5137265;27;20278;-88
2022/01/29 09:44:48;;;;;;;11.57;7.90;;;11.20;87.00;;;;;;5139380;27;20182;-89
2022/01/29 09:47:16;;;;;;;10.18;7.30;;;11.30;86.40;;;;;;5144515;27;20207;-89
2022/01/29 09:49:41;;;;;;;16.42;8.10;;;11.20;86.10;;;;;;5149944;27;20527;-88
2022/01/29 09:52:08;;;;;;;14.47;7.27;;;11.30;85.90;;;;;;5142259;27;20200;-88
2022/01/29 09:54:34;;;;;;;10.68;7.15;;;11.40;85.70;;;;;;5141969;27;20273;-89
2022/01/29 09:56:59;;;;;;;9.63;7.00;;;11.40;85.40;;;;;;5149314;27;20184;-88
2022/01/29 09:59:26;;;;;;;14.03;6.90;;;11.40;85.10;;;;;;5148507;27;20419;-89
2022/01/29 10:01:52;;;;;;;12.77;6.18;;;11.50;84.90;;;;;;5147449;27;20257;-89
2022/01/29 10:04:17;;;;;;;10.67;6.50;;;11.50;84.60;;;;;;5148292;27;20209;-89
2022/01/29 10:06:46;;;;;;;9.00;5.83;;;11.50;85.20;;;;;;5161283;27;20479;-88
2022/01/29 10:09:32;;;;;;;6.95;5.55;;;11.50;84.40;;;;;;5120340;27;20200;-89
2022/01/29 10:12:30;;;;;;;8.55;5.85;;;11.50;84.10;;;;;;5126244;27;20208;-89
2022/01/29 10:14:56;;;;;;;7.80;5.68;;;11.70;83.90;;;;;;5125911;27;20537;-89
2022/01/29 10:17:40;;;;;;;7.83;5.60;;;11.70;83.60;;;;;;5122007;27;20256;-89
2022/01/29 10:20:15;;;;;;;11.23;4.28;;;11.70;83.30;;;;;;5119023;27;20182;-89
2022/01/29 10:22:43;;;;;;;7.88;4.80;;;11.80;83.80;;;;;;5117924;27;20216;-89
2022/01/29 10:25:41;;;;;;;6.40;4.05;;;11.80;82.50;;;;;;5118330;27;20673;-89
2022/01/29 10:28:21;;;;;;;6.13;4.00;;;11.80;82.40;;;;;;5097960;28;20639;-89
2022/01/29 10:30:49;;;;;;;5.90;3.42;;;11.90;82.20;;;;;;5116102;28;20646;-89
2022/01/29 10:33:24;;;;;;;6.30;3.88;;;11.90;82.00;;;;;;5114786;28;20285;-89
2022/01/29 10:36:00;;;;;;;9.43;4.20;;;11.90;81.90;;;;;;5119229;27;20841;-89
2022/01/29 10:38:40;;;;;;;6.80;3.92;;;12.00;81.70;;;;;;5119942;27;20180;-89
2022/01/29 10:41:10;;;;;;;3.90;3.40;;;12.00;81.40;;;;;;5117606;27;20170;-90
2022/01/29 10:43:52;;;;;;;3.83;3.40;;;12.00;81.00;;;;;;5117944;27;20178;-89
2022/01/29 10:46:27;;;;;;;11.00;3.78;;;12.00;80.90;;;;;;5136965;27;20795;-88
2022/01/29 10:48:53;;;;;;;6.68;3.88;;;12.00;80.80;;;;;;5136546;27;20193;-89
2022/01/29 10:51:36;;;;;;;6.47;4.13;;;12.00;80.60;;;;;;5136450;27;20174;-90
2022/01/29 10:54:19;;;;;;;7.13;3.03;;;12.00;80.70;;;;;;5117869;27;20405;-88
2022/01/29 10:57:03;;;;;;;7.78;3.30;;;12.10;80.70;;;;;;5117730;27;20183;-88
2022/01/29 10:59:33;;;;;;;8.30;3.25;;;12.00;80.60;;;;;;5117874;27;20177;-89
2022/01/29 11:02:03;;;;;;;8.63;3.58;;;12.00;80.70;;;;;;5117562;27;20270;-89
2022/01/29 11:04:30;;;;;;;8.45;4.22;;;12.00;80.60;;;;;;5117742;27;20167;-89
2022/01/29 11:07:01;;;;;;;6.57;3.03;;;12.10;80.40;;;;;;5120538;27;20193;-89
2022/01/29 11:09:29;;;;;;;10.20;3.63;;;12.10;80.20;;;;;;5121398;28;20196;-90
2022/01/29 11:11:57;;;;;;;5.25;3.00;;;12.10;80.30;;;;;;5118283;28;20198;-88
2022/01/29 11:14:24;;;;;;;5.88;3.42;;;12.10;80.20;;;;;;5124886;28;20592;-88
2022/01/29 11:16:52;;;;;;;4.38;3.60;;;12.10;80.10;;;;;;5121159;28;20261;-88
2022/01/29 11:19:18;;;;;;;10.15;3.22;;;12.10;80.30;;;;;;5118254;28;20819;-88
2022/01/29 11:21:46;;;;;;;4.25;2.92;;;12.00;80.20;;;;;;5118706;28;20202;-88
2022/01/29 11:24:17;;;;;;;5.85;3.60;;;12.10;80.30;;;;;;5118824;28;20179;-88
2022/01/29 11:26:45;;;;;;;9.02;3.65;;;12.10;80.30;;;;;;5118045;28;20186;-88
2022/01/29 11:29:31;;;;;;;7.28;4.38;;;12.10;80.30;;;;;;5118063;28;20209;-88
2022/01/29 11:32:21;;;;;;;8.43;3.88;;;12.20;80.30;;;;;;5120525;28;20252;-88
2022/01/29 11:35:18;;;;;;;6.28;3.17;;;12.10;80.50;;;;;;5121101;28;20174;-89
2022/01/29 11:37:46;;;;;;;5.00;3.55;;;12.30;80.40;;;;;;5132629;27;20174;-86
2022/01/29 11:40:25;;;;;;;6.85;3.97;;;12.30;80.10;;;;;;5138050;28;20174;-86
2022/01/29 11:43:09;;;;;;;3.95;3.53;;;12.40;79.80;;;;;;5102781;28;20194;-88
2022/01/29 11:45:55;;;;;;;6.38;2.83;;;12.30;79.70;;;;;;5102586;28;20227;-88
2022/01/29 11:48:28;;;;;;;9.18;4.03;;;12.30;79.90;;;;;;5101014;28;20257;-88
2022/01/29 11:50:58;;;;;;;10.13;3.92;;;12.30;79.90;;;;;;5100380;28;20170;-87
2022/01/29 11:53:45;;;;;;;6.00;3.67;;;12.30;79.70;;;;;;5119248;28;20191;-87
2022/01/29 11:56:27;;;;;;;3.35;2.97;;;12.20;79.80;;;;;;5100722;28;20216;-88
2022/01/29 11:59:25;;;;;;;3.25;2.95;;;12.20;80.00;;;;;;5102989;28;20214;-89
2022/01/29 12:01:59;;;;;;;5.70;3.53;;;12.20;80.00;;;;;;5104714;27;20249;-89
2022/01/29 12:04:48;;;;;;;3.70;2.85;;;12.30;80.10;;;;;;5148833;27;20234;-89
2022/01/29 12:07:19;;;;;;;6.45;2.63;;;12.30;79.90;;;;;;5121800;27;20190;-89
2022/01/29 12:10:06;;;;;;;4.32;2.83;;;12.40;79.60;;;;;;5121836;27;20221;-89
2022/01/29 12:12:34;;;;;;;4.78;3.20;;;12.40;79.40;;;;;;5120823;27;20186;-90
2022/01/29 12:15:09;;;;;;;4.85;2.92;;;12.40;79.20;;;;;;5138932;27;20639;-89
2022/01/29 12:17:51;;;;;;;3.25;2.90;;;12.50;79.00;;;;;;5121252;27;20174;-90
2022/01/29 12:20:22;;;;;;;3.03;2.78;;;12.50;79.70;;;;;;5121427;27;20169;-90
2022/01/29 12:22:51;;;;;;;4.30;3.20;;;12.60;78.80;;;;;;5121319;27;20191;-90
2022/01/29 12:25:24;;;;;;;7.30;3.00;;;12.70;78.50;;;;;;5121103;27;20679;-89
2022/01/29 12:27:53;;;;;;;5.78;3.42;;;12.70;78.20;;;;;;5120332;27;20594;-89
2022/01/29 12:30:35;;;;;;;7.72;3.20;;;12.80;78.00;;;;;;5121304;27;20238;-89
2022/01/29 12:33:07;;;;;;;3.33;2.78;;;12.80;77.60;;;;;;5121041;27;20604;-89
2022/01/29 12:35:53;;;;;;;4.40;3.28;;;12.80;77.50;;;;;;5120992;27;20173;-89
2022/01/29 12:38:31;;;;;;;4.05;3.28;;;12.80;77.70;;;;;;5121826;27;20175;-89
2022/01/29 12:41:05;;;;;;;6.07;3.13;;;12.80;77.80;;;;;;5159422;27;20192;-89
2022/01/29 12:43:37;;;;;;;3.63;2.25;;;12.70;78.00;;;;;;5142540;27;20228;-90
2022/01/29 12:46:09;;;;;;;6.45;2.42;;;12.80;77.70;;;;;;5146325;27;20188;-90
2022/01/29 12:48:36;;;;;;;2.47;2.28;;;12.80;77.70;;;;;;5154448;27;20193;-91
2022/01/29 12:51:11;;;;;;;3.58;2.45;;;12.80;77.40;;;;;;5155770;27;20257;-90
2022/01/29 12:53:38;;;;;;;3.88;2.45;;;12.80;77.80;;;;;;5156278;27;20226;-89
2022/01/29 12:56:10;;;;;;;5.20;2.35;;;12.70;77.90;;;;;;5144445;27;20170;-90
2022/01/29 12:58:42;;;;;;;6.00;2.85;;;12.70;77.90;;;;;;5141995;27;20193;-89